createdAt,value
2018-08-12T00:00:34.446Z,12.60
2018-08-12T00:05:38.152Z,12.60
2018-08-12T00:10:41.842Z,12.50
2018-08-12T00:15:45.506Z,12.50
2018-08-12T00:20:49.249Z,12.40
2018-08-12T00:25:52.955Z,12.30
2018-08-12T00:30:56.679Z,12.20
2018-08-12T00:36:00.359Z,12.10
2018-08-12T00:41:04.167Z,12.00
2018-08-12T00:46:07.859Z,12.00
2018-08-12T00:51:11.583Z,11.90
2018-08-12T00:56:15.345Z,11.90
2018-08-12T01:01:19.042Z,11.80
2018-08-12T01:06:22.780Z,11.80
2018-08-12T01:11:26.504Z,11.80
2018-08-12T01:16:31.146Z,11.80
2018-08-12T01:21:34.959Z,11.80
2018-08-12T01:26:38.697Z,11.70
2018-08-12T01:31:42.362Z,11.70
2018-08-12T01:36:46.288Z,11.60
2018-08-12T01:41:49.991Z,11.50
2018-08-12T01:46:53.629Z,11.40
2018-08-12T01:51:57.425Z,11.30
2018-08-12T01:57:01.108Z,11.20
2018-08-12T02:02:04.889Z,11.20
2018-08-12T02:07:08.711Z,11.10
2018-08-12T02:12:12.384Z,11.00
2018-08-12T02:17:16.026Z,10.90
2018-08-12T02:22:19.669Z,10.80
2018-08-12T02:27:23.413Z,10.70
2018-08-12T02:32:27.125Z,10.70
2018-08-12T02:37:31.061Z,10.60
2018-08-12T02:42:34.829Z,10.50
2018-08-12T02:47:38.592Z,10.50
2018-08-12T02:52:42.841Z,10.50
2018-08-12T02:57:46.484Z,10.30
2018-08-12T03:02:50.125Z,10.30
2018-08-12T03:07:53.854Z,10.30
2018-08-12T03:12:57.896Z,10.20
2018-08-12T03:18:01.854Z,10.10
2018-08-12T03:23:05.880Z,10.10
2018-08-12T03:28:09.681Z,10.10
2018-08-12T03:33:13.561Z,10.10
2018-08-12T03:38:17.174Z,10.00
2018-08-12T03:43:20.777Z,10.00
2018-08-12T03:48:24.477Z,9.90
2018-08-12T03:53:28.126Z,9.90
2018-08-12T03:58:31.760Z,9.80
2018-08-12T04:03:35.421Z,9.80
2018-08-12T04:08:39.031Z,9.80
2018-08-12T04:13:42.630Z,9.80
2018-08-12T04:18:46.257Z,9.80
2018-08-12T04:23:49.920Z,9.80
2018-08-12T04:28:53.566Z,9.80
2018-08-12T04:33:57.199Z,9.80
2018-08-12T04:39:00.879Z,9.80
2018-08-12T04:44:04.753Z,9.90
2018-08-12T04:49:09.504Z,9.90
2018-08-12T04:54:13.149Z,10.00
2018-08-12T04:59:16.767Z,10.10
2018-08-12T05:04:20.431Z,10.20
2018-08-12T05:09:24.066Z,10.30
2018-08-12T05:14:27.858Z,10.40
2018-08-12T05:19:31.583Z,10.50
2018-08-12T05:24:35.242Z,10.60
2018-08-12T05:29:38.935Z,10.80
2018-08-12T05:34:42.614Z,11.00
2018-08-12T05:39:46.294Z,11.20
2018-08-12T05:44:49.990Z,11.30
2018-08-12T05:49:53.654Z,11.50
2018-08-12T05:54:57.320Z,11.80
2018-08-12T06:00:01.164Z,12.00
2018-08-12T06:05:05.641Z,12.30
2018-08-12T06:10:10.954Z,12.50
2018-08-12T06:15:19.028Z,12.80
2018-08-12T06:20:22.693Z,13.10
2018-08-12T06:25:26.303Z,13.50
2018-08-12T06:30:29.963Z,13.80
2018-08-12T06:35:33.643Z,14.10
2018-08-12T06:40:37.292Z,14.50
2018-08-12T06:45:40.943Z,14.80
2018-08-12T06:50:44.622Z,15.20
2018-08-12T06:55:48.292Z,15.60
2018-08-12T07:00:51.969Z,16.20
2018-08-12T07:05:55.605Z,16.80
2018-08-12T07:10:59.254Z,17.20
2018-08-12T07:16:02.978Z,17.60
2018-08-12T07:21:06.669Z,18.10
2018-08-12T07:26:10.370Z,18.40
2018-08-12T07:31:14.060Z,18.80
2018-08-12T07:36:17.694Z,19.20
2018-08-12T07:41:21.439Z,19.60
2018-08-12T07:46:25.236Z,20.00
2018-08-12T07:51:28.899Z,20.20
2018-08-12T07:56:32.729Z,20.20
2018-08-12T08:01:36.378Z,20.30
2018-08-12T08:06:40.148Z,20.40
2018-08-12T08:11:43.861Z,20.70
2018-08-12T08:16:47.548Z,21.00
2018-08-12T08:21:51.286Z,21.00
2018-08-12T08:26:54.942Z,21.20
2018-08-12T08:31:58.875Z,21.30
2018-08-12T08:37:02.306Z,21.40
2018-08-12T08:42:06.867Z,21.40
2018-08-12T08:47:10.576Z,21.70
2018-08-12T08:52:14.241Z,21.80
2018-08-12T08:57:17.926Z,21.90
2018-08-12T09:02:21.767Z,22.00
2018-08-12T09:07:25.479Z,22.20
2018-08-12T09:12:29.159Z,22.50
2018-08-12T09:17:32.880Z,22.70
2018-08-12T09:22:36.813Z,22.80
2018-08-12T09:27:40.514Z,22.90
2018-08-12T09:32:44.848Z,23.00
2018-08-12T09:37:48.521Z,23.30
2018-08-12T09:42:52.223Z,23.50
2018-08-12T09:47:55.858Z,23.80
2018-08-12T09:52:59.573Z,24.10
2018-08-12T09:58:03.307Z,23.90
2018-08-12T10:03:07.632Z,23.80
2018-08-12T10:08:11.374Z,23.90
2018-08-12T10:13:15.069Z,24.10
2018-08-12T10:18:18.739Z,23.90
2018-08-12T10:23:22.441Z,24.20
2018-08-12T10:28:26.187Z,24.20
2018-08-12T10:33:29.875Z,24.10
2018-08-12T10:38:33.555Z,24.40
2018-08-12T10:43:37.254Z,25.20
2018-08-12T10:48:40.885Z,25.50
2018-08-12T10:53:44.614Z,25.50
2018-08-12T10:58:48.319Z,25.80
2018-08-12T11:03:52.133Z,26.80
2018-08-12T11:08:55.919Z,27.60
2018-08-12T11:13:59.629Z,27.70
2018-08-12T11:19:03.279Z,28.10
2018-08-12T11:24:06.957Z,28.40
2018-08-12T11:29:10.598Z,28.70
2018-08-12T11:34:14.227Z,30.00
2018-08-12T11:39:17.848Z,30.40
2018-08-12T11:44:21.511Z,29.20
2018-08-12T11:49:25.162Z,29.50
2018-08-12T11:54:28.826Z,29.50
2018-08-12T11:59:32.496Z,29.40
2018-08-12T12:04:36.191Z,29.00
2018-08-12T12:09:39.837Z,28.80
2018-08-12T12:14:43.455Z,28.40
2018-08-12T12:19:47.090Z,29.30
2018-08-12T12:24:50.759Z,29.80
2018-08-12T12:29:54.434Z,30.70
2018-08-12T12:34:58.188Z,32.10
2018-08-12T12:40:01.884Z,32.20
2018-08-12T12:45:07.365Z,32.30
2018-08-12T12:50:17.054Z,34.10
2018-08-12T12:55:21.705Z,36.00
2018-08-12T13:00:25.428Z,36.30
2018-08-12T13:05:29.149Z,35.80
2018-08-12T13:10:32.950Z,35.50
2018-08-12T13:15:36.635Z,35.40
2018-08-12T13:20:40.361Z,36.20
2018-08-12T13:25:44.138Z,36.00
2018-08-12T13:30:47.892Z,36.60
2018-08-12T13:35:51.722Z,39.20
2018-08-12T13:40:55.604Z,39.70
2018-08-12T13:45:59.372Z,39.80
2018-08-12T13:51:03.096Z,40.10
2018-08-12T13:56:06.923Z,41.30
2018-08-12T14:01:10.668Z,39.60
2018-08-12T14:06:14.494Z,38.20
2018-08-12T14:11:18.234Z,38.10
2018-08-12T14:16:22.030Z,40.40
2018-08-12T14:21:26.021Z,42.10
2018-08-12T14:26:30.578Z,41.70
2018-08-12T14:31:34.364Z,41.00
2018-08-12T14:36:38.535Z,40.20
2018-08-12T14:41:42.445Z,41.20
2018-08-12T14:46:46.284Z,40.20
2018-08-12T14:51:50.068Z,39.70
2018-08-12T14:56:53.957Z,38.40
2018-08-12T15:01:57.862Z,37.20
2018-08-12T15:07:01.669Z,37.80
2018-08-12T15:12:05.597Z,38.90
2018-08-12T15:17:09.742Z,41.00
2018-08-12T15:27:22.356Z,38.00
2018-08-12T15:32:29.342Z,39.70
2018-08-12T15:37:33.267Z,40.50
2018-08-12T15:42:37.317Z,42.50
2018-08-12T15:47:42.118Z,43.70
2018-08-12T15:52:47.025Z,44.30
2018-08-12T15:57:51.318Z,44.50
2018-08-12T16:02:55.356Z,42.70
2018-08-12T16:07:59.262Z,43.30
2018-08-12T16:13:03.157Z,42.90
2018-08-12T16:18:07.016Z,42.30
2018-08-12T16:23:10.862Z,41.10
2018-08-12T16:28:14.687Z,39.90
2018-08-12T16:33:18.425Z,38.50
2018-08-12T16:38:22.151Z,36.90
2018-08-12T16:43:25.950Z,36.50
2018-08-12T16:48:29.647Z,36.10
2018-08-12T16:53:33.524Z,36.20
2018-08-12T16:58:37.382Z,35.70
2018-08-12T17:03:41.196Z,36.60
2018-08-12T17:08:45.083Z,36.90
2018-08-12T17:13:48.868Z,36.70
2018-08-12T17:18:52.833Z,36.60
2018-08-12T17:23:56.618Z,37.20
2018-08-12T17:29:00.283Z,37.20
2018-08-12T17:34:04.088Z,36.40
2018-08-12T17:39:09.942Z,35.50
2018-08-12T17:44:13.649Z,34.70
2018-08-12T17:49:17.387Z,34.00
2018-08-12T17:54:21.068Z,33.30
2018-08-12T17:59:24.817Z,32.20
2018-08-12T18:04:28.481Z,30.80
2018-08-12T18:09:32.136Z,29.50
2018-08-12T18:14:35.793Z,28.80
2018-08-12T18:19:39.462Z,28.20
2018-08-12T18:24:43.184Z,27.60
2018-08-12T18:29:46.900Z,27.00
2018-08-12T18:34:50.559Z,26.70
2018-08-12T18:39:54.271Z,26.50
2018-08-12T18:44:58.166Z,26.20
2018-08-12T18:50:02.082Z,26.00
2018-08-12T18:55:07.081Z,25.70
2018-08-12T19:00:13.117Z,25.40
2018-08-12T19:05:16.795Z,25.10
2018-08-12T19:10:20.478Z,24.90
2018-08-12T19:15:24.141Z,24.70
2018-08-12T19:20:27.834Z,24.50
2018-08-12T19:25:31.467Z,24.40
2018-08-12T19:30:35.102Z,24.20
2018-08-12T19:35:38.751Z,24.10
2018-08-12T19:40:42.573Z,23.90
2018-08-12T19:45:46.380Z,23.80
2018-08-12T19:50:50.141Z,23.70
2018-08-12T19:55:53.933Z,23.50
2018-08-12T20:00:57.928Z,23.40
2018-08-12T20:06:01.714Z,23.20
2018-08-12T20:11:05.602Z,23.10
2018-08-12T20:16:09.971Z,23.00
2018-08-12T20:21:13.980Z,22.80
2018-08-12T20:26:17.803Z,22.60
2018-08-12T20:31:21.625Z,22.40
2018-08-12T20:36:25.860Z,22.10
2018-08-12T20:41:29.921Z,21.90
2018-08-12T20:46:33.772Z,21.60
2018-08-12T20:51:37.697Z,21.40
2018-08-12T20:56:41.521Z,21.10
2018-08-12T21:01:45.365Z,20.90
2018-08-12T21:06:49.120Z,20.70
2018-08-12T21:11:53.105Z,20.40
2018-08-12T21:16:56.824Z,20.20
2018-08-12T21:22:00.508Z,20.10
2018-08-12T21:27:04.377Z,19.90
2018-08-12T21:32:08.807Z,19.80
2018-08-12T21:37:12.534Z,19.60
2018-08-12T21:42:16.287Z,19.40
2018-08-12T21:47:20.012Z,19.30
2018-08-12T21:52:23.704Z,19.10
2018-08-12T21:57:27.370Z,18.90
2018-08-12T22:02:31.139Z,18.80
2018-08-12T22:07:34.812Z,18.70
2018-08-12T22:12:38.452Z,18.60
2018-08-12T22:17:42.132Z,18.50
2018-08-12T22:22:45.798Z,18.30
2018-08-12T22:27:49.611Z,18.20
2018-08-12T22:32:53.530Z,18.10
2018-08-12T22:37:57.179Z,18.00
2018-08-12T22:43:00.889Z,18.00
2018-08-12T22:48:04.643Z,17.90
2018-08-12T22:53:08.353Z,17.80
2018-08-12T22:58:12.063Z,17.70
2018-08-12T23:03:16.011Z,17.60
2018-08-12T23:08:19.740Z,17.50
2018-08-12T23:13:23.430Z,17.40
2018-08-12T23:18:27.140Z,17.20
2018-08-12T23:23:30.792Z,17.20
2018-08-12T23:28:34.483Z,17.00
2018-08-12T23:33:38.703Z,16.90
2018-08-12T23:38:42.403Z,16.80
2018-08-12T23:43:46.152Z,16.80
2018-08-12T23:48:49.793Z,16.60
2018-08-12T23:53:53.411Z,16.60
2018-08-12T23:58:57.110Z,16.60
